sensor_id;sensor_type;location;lat;lon;timestamp;P1;durP1;ratioP1;P2;durP2;ratioP2
14139;SDS011;7150;53.514;9.988;2023-07-13T00:00:55;4.00;;;2.80;;
14139;SDS011;7150;53.514;9.988;2023-07-13T00:03:21;3.30;;;2.60;;
14139;SDS011;7150;53.514;9.988;2023-07-13T00:05:46;3.83;;;2.20;;
14139;SDS011;7150;53.514;9.988;2023-07-13T00:08:12;4.37;;;2.50;;
14139;SDS011;7150;53.514;9.988;2023-07-13T00:10:39;2.47;;;1.63;;
14139;SDS011;7150;53.514;9.988;2023-07-13T00:13:07;4.23;;;2.03;;
14139;SDS011;7150;53.514;9.988;2023-07-13T00:15:33;5.20;;;2.27;;
14139;SDS011;7150;53.514;9.988;2023-07-13T00:18:00;6.40;;;2.27;;
14139;SDS011;7150;53.514;9.988;2023-07-13T00:20:26;5.87;;;2.43;;
14139;SDS011;7150;53.514;9.988;2023-07-13T00:22:51;8.43;;;2.40;;
14139;SDS011;7150;53.514;9.988;2023-07-13T00:25:18;7.30;;;2.40;;
14139;SDS011;7150;53.514;9.988;2023-07-13T00:27:49;8.27;;;2.20;;
14139;SDS011;7150;53.514;9.988;2023-07-13T00:30:15;3.13;;;2.30;;
14139;SDS011;7150;53.514;9.988;2023-07-13T00:32:41;7.97;;;2.60;;
14139;SDS011;7150;53.514;9.988;2023-07-13T00:35:07;4.80;;;2.40;;
14139;SDS011;7150;53.514;9.988;2023-07-13T00:37:33;3.50;;;2.23;;
14139;SDS011;7150;53.514;9.988;2023-07-13T00:40:00;4.47;;;2.57;;
14139;SDS011;7150;53.514;9.988;2023-07-13T00:42:27;5.37;;;2.60;;
14139;SDS011;7150;53.514;9.988;2023-07-13T00:45:07;6.37;;;2.40;;
14139;SDS011;7150;53.514;9.988;2023-07-13T00:47:50;5.60;;;2.60;;
14139;SDS011;7150;53.514;9.988;2023-07-13T00:50:16;6.37;;;3.00;;
14139;SDS011;7150;53.514;9.988;2023-07-13T00:52:45;4.83;;;3.30;;
14139;SDS011;7150;53.514;9.988;2023-07-13T00:55:13;6.27;;;2.50;;
14139;SDS011;7150;53.514;9.988;2023-07-13T00:57:40;6.27;;;2.90;;
14139;SDS011;7150;53.514;9.988;2023-07-13T01:00:07;4.40;;;2.60;;
14139;SDS011;7150;53.514;9.988;2023-07-13T01:02:33;6.23;;;2.67;;
14139;SDS011;7150;53.514;9.988;2023-07-13T01:05:04;2.83;;;2.47;;
14139;SDS011;7150;53.514;9.988;2023-07-13T01:07:35;4.90;;;2.57;;
14139;SDS011;7150;53.514;9.988;2023-07-13T01:10:01;8.13;;;2.63;;
14139;SDS011;7150;53.514;9.988;2023-07-13T01:12:27;5.87;;;2.70;;
14139;SDS011;7150;53.514;9.988;2023-07-13T01:14:59;4.73;;;2.47;;
14139;SDS011;7150;53.514;9.988;2023-07-13T01:17:27;6.27;;;2.60;;
14139;SDS011;7150;53.514;9.988;2023-07-13T01:19:54;5.03;;;2.47;;
14139;SDS011;7150;53.514;9.988;2023-07-13T01:22:19;8.70;;;3.10;;
14139;SDS011;7150;53.514;9.988;2023-07-13T01:24:50;6.13;;;3.00;;
14139;SDS011;7150;53.514;9.988;2023-07-13T01:27:16;5.60;;;2.90;;
14139;SDS011;7150;53.514;9.988;2023-07-13T01:29:45;6.17;;;2.50;;
14139;SDS011;7150;53.514;9.988;2023-07-13T01:32:14;4.60;;;3.30;;
14139;SDS011;7150;53.514;9.988;2023-07-13T01:34:42;5.20;;;2.83;;
14139;SDS011;7150;53.514;9.988;2023-07-13T01:37:09;6.60;;;2.93;;
14139;SDS011;7150;53.514;9.988;2023-07-13T01:39:35;4.10;;;3.00;;
14139;SDS011;7150;53.514;9.988;2023-07-13T01:42:02;6.80;;;3.10;;
14139;SDS011;7150;53.514;9.988;2023-07-13T01:44:27;4.00;;;3.27;;
14139;SDS011;7150;53.514;9.988;2023-07-13T01:46:53;4.17;;;3.40;;
14139;SDS011;7150;53.514;9.988;2023-07-13T01:49:18;7.33;;;2.87;;
14139;SDS011;7150;53.514;9.988;2023-07-13T01:51:44;5.27;;;3.00;;
14139;SDS011;7150;53.514;9.988;2023-07-13T01:54:09;9.27;;;3.10;;
14139;SDS011;7150;53.514;9.988;2023-07-13T01:56:35;3.60;;;2.80;;
14139;SDS011;7150;53.514;9.988;2023-07-13T01:59:00;4.80;;;2.87;;
14139;SDS011;7150;53.514;9.988;2023-07-13T02:01:26;3.57;;;2.97;;
14139;SDS011;7150;53.514;9.988;2023-07-13T02:03:51;4.60;;;3.07;;
14139;SDS011;7150;53.514;9.988;2023-07-13T02:06:16;6.03;;;3.37;;
14139;SDS011;7150;53.514;9.988;2023-07-13T02:08:42;3.67;;;2.90;;
14139;SDS011;7150;53.514;9.988;2023-07-13T02:11:08;4.50;;;3.10;;
14139;SDS011;7150;53.514;9.988;2023-07-13T02:13:33;4.97;;;3.40;;
14139;SDS011;7150;53.514;9.988;2023-07-13T02:15:59;6.37;;;3.20;;
14139;SDS011;7150;53.514;9.988;2023-07-13T02:18:25;3.90;;;3.17;;
14139;SDS011;7150;53.514;9.988;2023-07-13T02:20:50;6.43;;;3.50;;
14139;SDS011;7150;53.514;9.988;2023-07-13T02:23:16;5.47;;;3.30;;
14139;SDS011;7150;53.514;9.988;2023-07-13T02:25:41;3.70;;;3.37;;
14139;SDS011;7150;53.514;9.988;2023-07-13T02:28:07;4.40;;;3.20;;
14139;SDS011;7150;53.514;9.988;2023-07-13T02:30:33;7.50;;;3.50;;
14139;SDS011;7150;53.514;9.988;2023-07-13T02:33:00;5.27;;;3.80;;
14139;SDS011;7150;53.514;9.988;2023-07-13T02:35:25;3.60;;;3.23;;
14139;SDS011;7150;53.514;9.988;2023-07-13T02:37:51;6.10;;;3.40;;
14139;SDS011;7150;53.514;9.988;2023-07-13T02:40:16;6.90;;;3.63;;
14139;SDS011;7150;53.514;9.988;2023-07-13T02:42:42;5.47;;;3.30;;
14139;SDS011;7150;53.514;9.988;2023-07-13T02:45:07;4.90;;;3.20;;
14139;SDS011;7150;53.514;9.988;2023-07-13T02:47:33;4.87;;;3.00;;
14139;SDS011;7150;53.514;9.988;2023-07-13T02:49:59;5.43;;;3.57;;
14139;SDS011;7150;53.514;9.988;2023-07-13T02:52:25;4.57;;;3.30;;
14139;SDS011;7150;53.514;9.988;2023-07-13T02:54:51;5.63;;;3.20;;
14139;SDS011;7150;53.514;9.988;2023-07-13T02:57:17;9.40;;;3.80;;
14139;SDS011;7150;53.514;9.988;2023-07-13T02:59:42;6.27;;;3.23;;
14139;SDS011;7150;53.514;9.988;2023-07-13T03:02:08;3.73;;;3.23;;
14139;SDS011;7150;53.514;9.988;2023-07-13T03:04:35;5.43;;;3.50;;
14139;SDS011;7150;53.514;9.988;2023-07-13T03:07:01;5.50;;;3.37;;
14139;SDS011;7150;53.514;9.988;2023-07-13T03:09:28;9.70;;;3.10;;
14139;SDS011;7150;53.514;9.988;2023-07-13T03:11:54;6.20;;;3.10;;
14139;SDS011;7150;53.514;9.988;2023-07-13T03:14:20;6.27;;;2.90;;
14139;SDS011;7150;53.514;9.988;2023-07-13T03:16:46;4.20;;;2.70;;
14139;SDS011;7150;53.514;9.988;2023-07-13T03:19:12;6.20;;;2.90;;
14139;SDS011;7150;53.514;9.988;2023-07-13T03:21:37;7.50;;;3.03;;
14139;SDS011;7150;53.514;9.988;2023-07-13T03:24:03;5.13;;;3.17;;
14139;SDS011;7150;53.514;9.988;2023-07-13T03:26:28;6.27;;;2.53;;
14139;SDS011;7150;53.514;9.988;2023-07-13T03:28:54;5.67;;;3.30;;
14139;SDS011;7150;53.514;9.988;2023-07-13T03:31:21;3.77;;;2.80;;
14139;SDS011;7150;53.514;9.988;2023-07-13T03:33:50;5.00;;;3.10;;
14139;SDS011;7150;53.514;9.988;2023-07-13T03:36:19;5.40;;;2.60;;
14139;SDS011;7150;53.514;9.988;2023-07-13T03:38:48;6.27;;;3.03;;
14139;SDS011;7150;53.514;9.988;2023-07-13T03:41:18;3.63;;;3.07;;
14139;SDS011;7150;53.514;9.988;2023-07-13T03:43:44;6.63;;;3.43;;
14139;SDS011;7150;53.514;9.988;2023-07-13T03:46:10;4.57;;;3.40;;
14139;SDS011;7150;53.514;9.988;2023-07-13T03:48:35;7.30;;;2.70;;
14139;SDS011;7150;53.514;9.988;2023-07-13T03:51:01;6.30;;;3.10;;
14139;SDS011;7150;53.514;9.988;2023-07-13T03:53:26;3.60;;;2.87;;
14139;SDS011;7150;53.514;9.988;2023-07-13T03:55:52;6.97;;;3.10;;
14139;SDS011;7150;53.514;9.988;2023-07-13T03:58:50;4.17;;;2.50;;
14139;SDS011;7150;53.514;9.988;2023-07-13T04:01:11;7.97;;;2.73;;
14139;SDS011;7150;53.514;9.988;2023-07-13T04:03:38;3.77;;;2.67;;
14139;SDS011;7150;53.514;9.988;2023-07-13T04:06:05;6.27;;;2.73;;
14139;SDS011;7150;53.514;9.988;2023-07-13T04:08:33;5.37;;;2.60;;
14139;SDS011;7150;53.514;9.988;2023-07-13T04:11:01;6.23;;;2.87;;
14139;SDS011;7150;53.514;9.988;2023-07-13T04:13:27;6.97;;;2.50;;
14139;SDS011;7150;53.514;9.988;2023-07-13T04:15:53;3.70;;;2.70;;
14139;SDS011;7150;53.514;9.988;2023-07-13T04:18:19;3.83;;;2.50;;
14139;SDS011;7150;53.514;9.988;2023-07-13T04:20:46;7.47;;;3.47;;
14139;SDS011;7150;53.514;9.988;2023-07-13T04:23:12;7.07;;;2.77;;
14139;SDS011;7150;53.514;9.988;2023-07-13T04:25:38;7.27;;;3.33;;
14139;SDS011;7150;53.514;9.988;2023-07-13T04:28:04;7.33;;;3.03;;
14139;SDS011;7150;53.514;9.988;2023-07-13T04:30:31;10.03;;;3.57;;
14139;SDS011;7150;53.514;9.988;2023-07-13T04:32:56;6.80;;;3.17;;
14139;SDS011;7150;53.514;9.988;2023-07-13T04:35:22;3.87;;;2.70;;
14139;SDS011;7150;53.514;9.988;2023-07-13T04:37:48;9.30;;;3.40;;
14139;SDS011;7150;53.514;9.988;2023-07-13T04:40:15;7.67;;;2.83;;
14139;SDS011;7150;53.514;9.988;2023-07-13T04:42:44;6.30;;;3.10;;
14139;SDS011;7150;53.514;9.988;2023-07-13T04:45:10;6.93;;;3.37;;
14139;SDS011;7150;53.514;9.988;2023-07-13T04:47:36;12.87;;;3.30;;
14139;SDS011;7150;53.514;9.988;2023-07-13T04:50:02;5.00;;;2.93;;
14139;SDS011;7150;53.514;9.988;2023-07-13T04:52:28;8.90;;;2.93;;
14139;SDS011;7150;53.514;9.988;2023-07-13T04:54:53;6.27;;;2.50;;
14139;SDS011;7150;53.514;9.988;2023-07-13T04:57:19;5.67;;;3.37;;
14139;SDS011;7150;53.514;9.988;2023-07-13T04:59:44;6.43;;;2.70;;
14139;SDS011;7150;53.514;9.988;2023-07-13T05:02:10;3.97;;;2.50;;
14139;SDS011;7150;53.514;9.988;2023-07-13T05:04:35;10.23;;;2.80;;
14139;SDS011;7150;53.514;9.988;2023-07-13T05:07:01;5.87;;;2.73;;
14139;SDS011;7150;53.514;9.988;2023-07-13T05:09:26;8.40;;;2.83;;
14139;SDS011;7150;53.514;9.988;2023-07-13T05:11:52;6.37;;;2.43;;
14139;SDS011;7150;53.514;9.988;2023-07-13T05:14:17;7.20;;;2.50;;
14139;SDS011;7150;53.514;9.988;2023-07-13T05:16:43;5.80;;;2.80;;
14139;SDS011;7150;53.514;9.988;2023-07-13T05:19:09;7.03;;;2.83;;
14139;SDS011;7150;53.514;9.988;2023-07-13T05:21:34;11.67;;;3.20;;
14139;SDS011;7150;53.514;9.988;2023-07-13T05:24:00;9.10;;;3.10;;
14139;SDS011;7150;53.514;9.988;2023-07-13T05:26:26;7.07;;;3.43;;
14139;SDS011;7150;53.514;9.988;2023-07-13T05:28:51;5.43;;;2.77;;
14139;SDS011;7150;53.514;9.988;2023-07-13T05:31:17;8.30;;;3.00;;
14139;SDS011;7150;53.514;9.988;2023-07-13T05:33:42;6.97;;;2.50;;
14139;SDS011;7150;53.514;9.988;2023-07-13T05:36:08;4.57;;;3.03;;
14139;SDS011;7150;53.514;9.988;2023-07-13T05:38:34;13.57;;;3.30;;
14139;SDS011;7150;53.514;9.988;2023-07-13T05:40:59;7.40;;;3.33;;
14139;SDS011;7150;53.514;9.988;2023-07-13T05:43:25;8.63;;;2.63;;
14139;SDS011;7150;53.514;9.988;2023-07-13T05:45:52;11.73;;;3.67;;
14139;SDS011;7150;53.514;9.988;2023-07-13T05:48:19;14.00;;;3.90;;
14139;SDS011;7150;53.514;9.988;2023-07-13T05:50:44;9.13;;;3.57;;
14139;SDS011;7150;53.514;9.988;2023-07-13T05:53:11;8.17;;;2.80;;
14139;SDS011;7150;53.514;9.988;2023-07-13T05:55:40;11.83;;;3.90;;
14139;SDS011;7150;53.514;9.988;2023-07-13T05:58:16;11.23;;;4.13;;
14139;SDS011;7150;53.514;9.988;2023-07-13T06:00:42;8.60;;;3.17;;
14139;SDS011;7150;53.514;9.988;2023-07-13T06:03:08;6.20;;;3.37;;
14139;SDS011;7150;53.514;9.988;2023-07-13T06:05:34;11.77;;;3.70;;
14139;SDS011;7150;53.514;9.988;2023-07-13T06:08:01;8.47;;;3.80;;
14139;SDS011;7150;53.514;9.988;2023-07-13T06:10:27;10.07;;;3.43;;
14139;SDS011;7150;53.514;9.988;2023-07-13T06:12:53;8.57;;;3.80;;
14139;SDS011;7150;53.514;9.988;2023-07-13T06:15:18;10.00;;;3.50;;
14139;SDS011;7150;53.514;9.988;2023-07-13T06:17:43;11.33;;;3.63;;
14139;SDS011;7150;53.514;9.988;2023-07-13T06:20:10;5.97;;;3.00;;
14139;SDS011;7150;53.514;9.988;2023-07-13T06:22:35;12.77;;;3.80;;
14139;SDS011;7150;53.514;9.988;2023-07-13T06:25:01;12.43;;;4.37;;
14139;SDS011;7150;53.514;9.988;2023-07-13T06:27:26;8.77;;;3.80;;
14139;SDS011;7150;53.514;9.988;2023-07-13T06:29:52;11.87;;;3.33;;
14139;SDS011;7150;53.514;9.988;2023-07-13T06:32:17;11.23;;;3.70;;
14139;SDS011;7150;53.514;9.988;2023-07-13T06:34:43;11.37;;;4.13;;
14139;SDS011;7150;53.514;9.988;2023-07-13T06:37:09;14.33;;;3.83;;
14139;SDS011;7150;53.514;9.988;2023-07-13T06:39:35;13.17;;;3.77;;
14139;SDS011;7150;53.514;9.988;2023-07-13T06:42:00;9.87;;;3.47;;
14139;SDS011;7150;53.514;9.988;2023-07-13T06:44:26;15.60;;;3.60;;
14139;SDS011;7150;53.514;9.988;2023-07-13T06:46:51;11.33;;;3.90;;
14139;SDS011;7150;53.514;9.988;2023-07-13T06:49:17;12.03;;;3.63;;
14139;SDS011;7150;53.514;9.988;2023-07-13T06:51:42;8.23;;;3.13;;
14139;SDS011;7150;53.514;9.988;2023-07-13T06:54:08;13.00;;;3.17;;
14139;SDS011;7150;53.514;9.988;2023-07-13T06:56:33;10.27;;;3.23;;
14139;SDS011;7150;53.514;9.988;2023-07-13T06:58:59;11.87;;;3.80;;
14139;SDS011;7150;53.514;9.988;2023-07-13T07:01:25;10.83;;;3.17;;
14139;SDS011;7150;53.514;9.988;2023-07-13T07:03:50;10.93;;;3.43;;
14139;SDS011;7150;53.514;9.988;2023-07-13T07:06:17;10.07;;;3.77;;
14139;SDS011;7150;53.514;9.988;2023-07-13T07:08:43;10.67;;;3.07;;
14139;SDS011;7150;53.514;9.988;2023-07-13T07:11:12;13.07;;;3.67;;
14139;SDS011;7150;53.514;9.988;2023-07-13T07:13:39;12.53;;;3.20;;
14139;SDS011;7150;53.514;9.988;2023-07-13T07:16:05;9.00;;;3.90;;
14139;SDS011;7150;53.514;9.988;2023-07-13T07:18:30;13.17;;;3.53;;
14139;SDS011;7150;53.514;9.988;2023-07-13T07:20:56;8.70;;;3.10;;
14139;SDS011;7150;53.514;9.988;2023-07-13T07:23:21;10.30;;;2.90;;
14139;SDS011;7150;53.514;9.988;2023-07-13T07:25:47;13.67;;;3.37;;
14139;SDS011;7150;53.514;9.988;2023-07-13T07:28:14;10.23;;;3.07;;
14139;SDS011;7150;53.514;9.988;2023-07-13T07:30:43;15.13;;;3.47;;
14139;SDS011;7150;53.514;9.988;2023-07-13T07:33:09;13.57;;;3.30;;
14139;SDS011;7150;53.514;9.988;2023-07-13T07:35:34;9.27;;;3.67;;
14139;SDS011;7150;53.514;9.988;2023-07-13T07:38:00;7.90;;;2.83;;
14139;SDS011;7150;53.514;9.988;2023-07-13T07:40:25;10.13;;;3.40;;
14139;SDS011;7150;53.514;9.988;2023-07-13T07:42:51;8.83;;;2.87;;
14139;SDS011;7150;53.514;9.988;2023-07-13T07:45:17;7.10;;;3.40;;
14139;SDS011;7150;53.514;9.988;2023-07-13T07:47:42;11.80;;;3.13;;
14139;SDS011;7150;53.514;9.988;2023-07-13T07:50:08;14.87;;;3.37;;
14139;SDS011;7150;53.514;9.988;2023-07-13T07:52:34;10.30;;;2.90;;
14139;SDS011;7150;53.514;9.988;2023-07-13T07:54:59;13.40;;;3.83;;
14139;SDS011;7150;53.514;9.988;2023-07-13T07:57:25;16.67;;;3.23;;
14139;SDS011;7150;53.514;9.988;2023-07-13T07:59:51;7.70;;;2.87;;
14139;SDS011;7150;53.514;9.988;2023-07-13T08:02:16;8.33;;;3.00;;
14139;SDS011;7150;53.514;9.988;2023-07-13T08:04:42;9.13;;;2.80;;
14139;SDS011;7150;53.514;9.988;2023-07-13T08:07:08;10.60;;;2.90;;
14139;SDS011;7150;53.514;9.988;2023-07-13T08:09:34;8.67;;;3.10;;
14139;SDS011;7150;53.514;9.988;2023-07-13T08:11:59;9.43;;;3.30;;
14139;SDS011;7150;53.514;9.988;2023-07-13T08:14:25;9.60;;;2.93;;
14139;SDS011;7150;53.514;9.988;2023-07-13T08:16:51;9.70;;;3.00;;
14139;SDS011;7150;53.514;9.988;2023-07-13T08:19:16;9.67;;;2.93;;
14139;SDS011;7150;53.514;9.988;2023-07-13T08:21:42;12.53;;;3.00;;
14139;SDS011;7150;53.514;9.988;2023-07-13T08:24:08;12.30;;;3.33;;
14139;SDS011;7150;53.514;9.988;2023-07-13T08:26:34;10.67;;;3.33;;
14139;SDS011;7150;53.514;9.988;2023-07-13T08:28:59;11.50;;;2.70;;
14139;SDS011;7150;53.514;9.988;2023-07-13T08:31:25;14.03;;;3.10;;
14139;SDS011;7150;53.514;9.988;2023-07-13T08:33:50;14.03;;;3.53;;
14139;SDS011;7150;53.514;9.988;2023-07-13T08:36:16;6.33;;;2.60;;
14139;SDS011;7150;53.514;9.988;2023-07-13T08:38:41;10.60;;;3.23;;
14139;SDS011;7150;53.514;9.988;2023-07-13T08:41:17;7.97;;;3.10;;
14139;SDS011;7150;53.514;9.988;2023-07-13T08:43:45;11.30;;;3.00;;
14139;SDS011;7150;53.514;9.988;2023-07-13T08:46:20;6.73;;;2.80;;
14139;SDS011;7150;53.514;9.988;2023-07-13T08:48:52;8.27;;;3.17;;
14139;SDS011;7150;53.514;9.988;2023-07-13T08:53:54;6.90;;;2.63;;
14139;SDS011;7150;53.514;9.988;2023-07-13T08:56:25;8.20;;;2.60;;
14139;SDS011;7150;53.514;9.988;2023-07-13T08:58:57;12.30;;;3.10;;
14139;SDS011;7150;53.514;9.988;2023-07-13T09:04:41;7.37;;;2.73;;
14139;SDS011;7150;53.514;9.988;2023-07-13T09:10:14;9.07;;;3.07;;
14139;SDS011;7150;53.514;9.988;2023-07-13T09:12:51;10.03;;;2.70;;
14139;SDS011;7150;53.514;9.988;2023-07-13T09:15:24;11.07;;;3.00;;
14139;SDS011;7150;53.514;9.988;2023-07-13T09:17:55;10.63;;;2.80;;
14139;SDS011;7150;53.514;9.988;2023-07-13T09:20:36;7.20;;;2.47;;
14139;SDS011;7150;53.514;9.988;2023-07-13T09:23:14;6.37;;;2.70;;
14139;SDS011;7150;53.514;9.988;2023-07-13T09:25:43;10.20;;;2.90;;
14139;SDS011;7150;53.514;9.988;2023-07-13T09:28:17;6.50;;;2.77;;
14139;SDS011;7150;53.514;9.988;2023-07-13T09:30:53;7.00;;;2.93;;
14139;SDS011;7150;53.514;9.988;2023-07-13T09:33:29;9.13;;;2.77;;
14139;SDS011;7150;53.514;9.988;2023-07-13T09:35:56;6.63;;;2.30;;
14139;SDS011;7150;53.514;9.988;2023-07-13T09:38:23;10.70;;;3.50;;
14139;SDS011;7150;53.514;9.988;2023-07-13T09:40:55;7.23;;;2.60;;
14139;SDS011;7150;53.514;9.988;2023-07-13T09:43:23;11.37;;;2.77;;
14139;SDS011;7150;53.514;9.988;2023-07-13T09:45:49;7.70;;;2.30;;
14139;SDS011;7150;53.514;9.988;2023-07-13T09:48:15;8.80;;;2.70;;
14139;SDS011;7150;53.514;9.988;2023-07-13T09:50:42;5.93;;;3.03;;
14139;SDS011;7150;53.514;9.988;2023-07-13T09:53:15;6.90;;;2.50;;
14139;SDS011;7150;53.514;9.988;2023-07-13T09:55:43;4.90;;;2.50;;
14139;SDS011;7150;53.514;9.988;2023-07-13T09:58:12;5.83;;;2.70;;
14139;SDS011;7150;53.514;9.988;2023-07-13T10:00:43;5.83;;;2.60;;
14139;SDS011;7150;53.514;9.988;2023-07-13T10:03:32;9.43;;;2.50;;
14139;SDS011;7150;53.514;9.988;2023-07-13T10:06:19;8.93;;;3.27;;
14139;SDS011;7150;53.514;9.988;2023-07-13T10:08:49;7.20;;;3.07;;
14139;SDS011;7150;53.514;9.988;2023-07-13T10:13:43;4.13;;;2.03;;
14139;SDS011;7150;53.514;9.988;2023-07-13T10:16:10;7.63;;;2.60;;
14139;SDS011;7150;53.514;9.988;2023-07-13T10:18:42;5.27;;;2.30;;
14139;SDS011;7150;53.514;9.988;2023-07-13T10:21:18;6.60;;;2.60;;
14139;SDS011;7150;53.514;9.988;2023-07-13T10:23:55;6.77;;;2.70;;
14139;SDS011;7150;53.514;9.988;2023-07-13T10:26:26;7.77;;;2.60;;
14139;SDS011;7150;53.514;9.988;2023-07-13T10:28:56;4.60;;;2.40;;
14139;SDS011;7150;53.514;9.988;2023-07-13T10:31:25;5.97;;;2.87;;
14139;SDS011;7150;53.514;9.988;2023-07-13T10:33:51;9.07;;;2.67;;
14139;SDS011;7150;53.514;9.988;2023-07-13T10:36:27;5.27;;;2.47;;
14139;SDS011;7150;53.514;9.988;2023-07-13T10:39:04;7.10;;;2.23;;
14139;SDS011;7150;53.514;9.988;2023-07-13T10:41:32;8.60;;;2.30;;
14139;SDS011;7150;53.514;9.988;2023-07-13T10:44:01;5.60;;;2.23;;
14139;SDS011;7150;53.514;9.988;2023-07-13T10:46:28;9.03;;;2.73;;
14139;SDS011;7150;53.514;9.988;2023-07-13T10:48:56;4.77;;;2.13;;
14139;SDS011;7150;53.514;9.988;2023-07-13T10:51:24;6.10;;;2.30;;
14139;SDS011;7150;53.514;9.988;2023-07-13T10:54:10;4.40;;;2.20;;
14139;SDS011;7150;53.514;9.988;2023-07-13T10:56:36;4.57;;;2.20;;
14139;SDS011;7150;53.514;9.988;2023-07-13T11:04:22;4.63;;;2.20;;
14139;SDS011;7150;53.514;9.988;2023-07-13T11:06:50;4.73;;;2.07;;
14139;SDS011;7150;53.514;9.988;2023-07-13T11:09:39;4.30;;;2.20;;
14139;SDS011;7150;53.514;9.988;2023-07-13T11:12:09;3.40;;;1.80;;
14139;SDS011;7150;53.514;9.988;2023-07-13T11:19:53;3.60;;;1.83;;
14139;SDS011;7150;53.514;9.988;2023-07-13T11:22:23;7.90;;;1.93;;
14139;SDS011;7150;53.514;9.988;2023-07-13T11:24:52;6.83;;;1.83;;
14139;SDS011;7150;53.514;9.988;2023-07-13T11:27:41;2.07;;;1.53;;
14139;SDS011;7150;53.514;9.988;2023-07-13T11:30:18;3.83;;;2.27;;
14139;SDS011;7150;53.514;9.988;2023-07-13T11:33:02;4.63;;;2.20;;
14139;SDS011;7150;53.514;9.988;2023-07-13T11:35:38;6.97;;;2.17;;
14139;SDS011;7150;53.514;9.988;2023-07-13T11:38:12;4.37;;;1.93;;
14139;SDS011;7150;53.514;9.988;2023-07-13T11:40:47;5.50;;;1.80;;
14139;SDS011;7150;53.514;9.988;2023-07-13T11:43:15;6.20;;;2.10;;
14139;SDS011;7150;53.514;9.988;2023-07-13T11:45:42;5.90;;;1.87;;
14139;SDS011;7150;53.514;9.988;2023-07-13T11:48:18;5.50;;;1.90;;
14139;SDS011;7150;53.514;9.988;2023-07-13T11:50:48;10.60;;;2.07;;
14139;SDS011;7150;53.514;9.988;2023-07-13T11:53:22;5.07;;;1.80;;
14139;SDS011;7150;53.514;9.988;2023-07-13T11:55:51;5.57;;;2.10;;
14139;SDS011;7150;53.514;9.988;2023-07-13T11:58:17;4.37;;;1.97;;
14139;SDS011;7150;53.514;9.988;2023-07-13T12:00:48;3.70;;;1.90;;
14139;SDS011;7150;53.514;9.988;2023-07-13T12:03:14;5.43;;;2.03;;
14139;SDS011;7150;53.514;9.988;2023-07-13T12:06:01;6.30;;;2.13;;
14139;SDS011;7150;53.514;9.988;2023-07-13T12:08:30;7.90;;;2.07;;
14139;SDS011;7150;53.514;9.988;2023-07-13T12:11:04;3.67;;;1.80;;
14139;SDS011;7150;53.514;9.988;2023-07-13T12:13:37;3.77;;;1.80;;
14139;SDS011;7150;53.514;9.988;2023-07-13T12:16:09;6.40;;;1.70;;
14139;SDS011;7150;53.514;9.988;2023-07-13T12:18:37;13.77;;;2.63;;
14139;SDS011;7150;53.514;9.988;2023-07-13T12:21:03;10.30;;;2.73;;
14139;SDS011;7150;53.514;9.988;2023-07-13T12:23:32;15.47;;;2.50;;
14139;SDS011;7150;53.514;9.988;2023-07-13T12:25:59;9.07;;;3.10;;
14139;SDS011;7150;53.514;9.988;2023-07-13T12:28:35;12.20;;;2.67;;
14139;SDS011;7150;53.514;9.988;2023-07-13T12:31:06;7.87;;;2.70;;
14139;SDS011;7150;53.514;9.988;2023-07-13T12:33:33;4.70;;;2.30;;
14139;SDS011;7150;53.514;9.988;2023-07-13T12:36:00;5.73;;;2.10;;
14139;SDS011;7150;53.514;9.988;2023-07-13T12:38:27;5.47;;;2.33;;
14139;SDS011;7150;53.514;9.988;2023-07-13T12:40:54;3.77;;;1.67;;
14139;SDS011;7150;53.514;9.988;2023-07-13T12:43:20;2.87;;;1.70;;
14139;SDS011;7150;53.514;9.988;2023-07-13T12:45:58;3.07;;;1.97;;
14139;SDS011;7150;53.514;9.988;2023-07-13T12:48:40;5.03;;;1.83;;
14139;SDS011;7150;53.514;9.988;2023-07-13T12:51:08;4.87;;;2.00;;
14139;SDS011;7150;53.514;9.988;2023-07-13T12:53:38;6.67;;;1.97;;
14139;SDS011;7150;53.514;9.988;2023-07-13T12:56:15;5.40;;;2.30;;
14139;SDS011;7150;53.514;9.988;2023-07-13T12:58:46;5.33;;;2.43;;
14139;SDS011;7150;53.514;9.988;2023-07-13T13:01:15;4.57;;;2.03;;
14139;SDS011;7150;53.514;9.988;2023-07-13T13:03:45;2.67;;;1.73;;
14139;SDS011;7150;53.514;9.988;2023-07-13T13:08:43;4.80;;;2.30;;
14139;SDS011;7150;53.514;9.988;2023-07-13T13:11:11;3.90;;;1.80;;
14139;SDS011;7150;53.514;9.988;2023-07-13T13:13:36;5.17;;;1.97;;
14139;SDS011;7150;53.514;9.988;2023-07-13T13:16:04;4.67;;;2.33;;
14139;SDS011;7150;53.514;9.988;2023-07-13T13:18:39;3.03;;;1.90;;
14139;SDS011;7150;53.514;9.988;2023-07-13T13:21:04;6.37;;;2.30;;
14139;SDS011;7150;53.514;9.988;2023-07-13T13:23:30;5.77;;;2.67;;
14139;SDS011;7150;53.514;9.988;2023-07-13T13:25:56;3.03;;;2.00;;
14139;SDS011;7150;53.514;9.988;2023-07-13T13:28:22;5.40;;;3.07;;
14139;SDS011;7150;53.514;9.988;2023-07-13T13:30:48;5.20;;;2.90;;
14139;SDS011;7150;53.514;9.988;2023-07-13T13:33:16;4.13;;;2.20;;
14139;SDS011;7150;53.514;9.988;2023-07-13T13:35:42;5.80;;;2.33;;
14139;SDS011;7150;53.514;9.988;2023-07-13T13:38:14;9.73;;;3.07;;
14139;SDS011;7150;53.514;9.988;2023-07-13T13:40:44;4.87;;;1.90;;
14139;SDS011;7150;53.514;9.988;2023-07-13T13:43:16;4.00;;;2.13;;
14139;SDS011;7150;53.514;9.988;2023-07-13T13:45:43;5.40;;;2.17;;
14139;SDS011;7150;53.514;9.988;2023-07-13T13:48:13;3.20;;;2.00;;
14139;SDS011;7150;53.514;9.988;2023-07-13T13:50:43;4.47;;;2.20;;
14139;SDS011;7150;53.514;9.988;2023-07-13T13:53:10;5.57;;;2.20;;
14139;SDS011;7150;53.514;9.988;2023-07-13T13:55:37;2.77;;;1.87;;
14139;SDS011;7150;53.514;9.988;2023-07-13T13:58:03;2.50;;;2.10;;
14139;SDS011;7150;53.514;9.988;2023-07-13T14:00:29;2.07;;;1.50;;
14139;SDS011;7150;53.514;9.988;2023-07-13T14:02:54;3.37;;;1.67;;
14139;SDS011;7150;53.514;9.988;2023-07-13T14:05:22;3.53;;;1.83;;
14139;SDS011;7150;53.514;9.988;2023-07-13T14:07:52;4.00;;;1.80;;
14139;SDS011;7150;53.514;9.988;2023-07-13T14:10:19;2.83;;;1.80;;
14139;SDS011;7150;53.514;9.988;2023-07-13T14:12:45;3.23;;;2.50;;
14139;SDS011;7150;53.514;9.988;2023-07-13T14:17:52;2.83;;;1.90;;
14139;SDS011;7150;53.514;9.988;2023-07-13T14:20:19;6.90;;;2.93;;
14139;SDS011;7150;53.514;9.988;2023-07-13T14:22:48;3.40;;;1.97;;
14139;SDS011;7150;53.514;9.988;2023-07-13T14:25:15;6.97;;;2.00;;
14139;SDS011;7150;53.514;9.988;2023-07-13T14:27:42;3.90;;;2.10;;
14139;SDS011;7150;53.514;9.988;2023-07-13T14:32:41;5.27;;;2.10;;
14139;SDS011;7150;53.514;9.988;2023-07-13T14:35:13;4.27;;;2.47;;
14139;SDS011;7150;53.514;9.988;2023-07-13T14:37:40;3.47;;;2.07;;
14139;SDS011;7150;53.514;9.988;2023-07-13T14:40:17;4.83;;;2.07;;
14139;SDS011;7150;53.514;9.988;2023-07-13T14:42:49;6.70;;;2.03;;
14139;SDS011;7150;53.514;9.988;2023-07-13T14:45:15;4.17;;;2.50;;
14139;SDS011;7150;53.514;9.988;2023-07-13T14:47:45;6.23;;;2.00;;
14139;SDS011;7150;53.514;9.988;2023-07-13T14:50:14;4.40;;;2.20;;
14139;SDS011;7150;53.514;9.988;2023-07-13T14:52:45;5.17;;;2.67;;
14139;SDS011;7150;53.514;9.988;2023-07-13T14:55:16;3.17;;;1.77;;
14139;SDS011;7150;53.514;9.988;2023-07-13T14:57:43;4.53;;;2.10;;
14139;SDS011;7150;53.514;9.988;2023-07-13T15:00:15;5.33;;;2.37;;
14139;SDS011;7150;53.514;9.988;2023-07-13T15:02:43;5.60;;;2.40;;
14139;SDS011;7150;53.514;9.988;2023-07-13T15:05:19;4.83;;;1.90;;
14139;SDS011;7150;53.514;9.988;2023-07-13T15:07:47;4.80;;;2.10;;
14139;SDS011;7150;53.514;9.988;2023-07-13T15:10:24;4.93;;;2.53;;
14139;SDS011;7150;53.514;9.988;2023-07-13T15:12:52;4.67;;;2.63;;
14139;SDS011;7150;53.514;9.988;2023-07-13T15:15:18;3.40;;;1.90;;
14139;SDS011;7150;53.514;9.988;2023-07-13T15:17:45;4.13;;;2.17;;
14139;SDS011;7150;53.514;9.988;2023-07-13T15:22:50;1.97;;;1.60;;
14139;SDS011;7150;53.514;9.988;2023-07-13T15:25:17;3.00;;;1.60;;
14139;SDS011;7150;53.514;9.988;2023-07-13T15:27:45;3.43;;;1.80;;
14139;SDS011;7150;53.514;9.988;2023-07-13T15:30:11;3.17;;;1.80;;
14139;SDS011;7150;53.514;9.988;2023-07-13T15:32:37;3.90;;;2.03;;
14139;SDS011;7150;53.514;9.988;2023-07-13T15:35:04;3.70;;;1.80;;